sensor_id;sensor_type;location;lat;lon;timestamp;P1;durP1;ratioP1;P2;durP2;ratioP2
8694;SDS011;65580;49.446;6.854;2023-08-24T00:01:34;7.80;;;2.80;;
8694;SDS011;65580;49.446;6.854;2023-08-24T00:05:37;4.20;;;2.58;;
8694;SDS011;65580;49.446;6.854;2023-08-24T00:09:40;5.70;;;2.17;;
8694;SDS011;65580;49.446;6.854;2023-08-24T00:13:43;4.22;;;2.63;;
8694;SDS011;65580;49.446;6.854;2023-08-24T00:17:51;4.95;;;2.40;;
8694;SDS011;65580;49.446;6.854;2023-08-24T00:21:55;5.70;;;2.35;;
8694;SDS011;65580;49.446;6.854;2023-08-24T00:25:58;3.88;;;2.20;;
8694;SDS011;65580;49.446;6.854;2023-08-24T00:30:02;5.70;;;2.88;;
8694;SDS011;65580;49.446;6.854;2023-08-24T00:34:07;5.35;;;2.60;;
8694;SDS011;65580;49.446;6.854;2023-08-24T00:38:10;5.88;;;2.92;;
8694;SDS011;65580;49.446;6.854;2023-08-24T00:42:13;4.22;;;2.10;;
8694;SDS011;65580;49.446;6.854;2023-08-24T00:46:16;3.50;;;2.08;;
8694;SDS011;65580;49.446;6.854;2023-08-24T00:50:20;4.47;;;2.20;;
8694;SDS011;65580;49.446;6.854;2023-08-24T00:54:23;7.07;;;2.60;;
8694;SDS011;65580;49.446;6.854;2023-08-24T00:58:26;4.82;;;2.60;;
8694;SDS011;65580;49.446;6.854;2023-08-24T01:02:30;5.88;;;2.92;;
8694;SDS011;65580;49.446;6.854;2023-08-24T01:06:34;3.65;;;2.47;;
8694;SDS011;65580;49.446;6.854;2023-08-24T01:10:38;6.50;;;2.97;;
8694;SDS011;65580;49.446;6.854;2023-08-24T01:14:50;6.03;;;2.40;;
8694;SDS011;65580;49.446;6.854;2023-08-24T01:18:57;5.70;;;2.00;;
8694;SDS011;65580;49.446;6.854;2023-08-24T01:23:07;5.63;;;2.95;;
8694;SDS011;65580;49.446;6.854;2023-08-24T01:27:18;7.40;;;2.63;;
8694;SDS011;65580;49.446;6.854;2023-08-24T01:31:40;6.82;;;2.97;;
8694;SDS011;65580;49.446;6.854;2023-08-24T01:39:46;6.05;;;2.33;;
8694;SDS011;65580;49.446;6.854;2023-08-24T01:43:54;4.43;;;2.50;;
8694;SDS011;65580;49.446;6.854;2023-08-24T01:48:00;5.15;;;2.30;;
8694;SDS011;65580;49.446;6.854;2023-08-24T01:52:05;5.18;;;2.85;;
8694;SDS011;65580;49.446;6.854;2023-08-24T01:56:08;6.53;;;2.25;;
8694;SDS011;65580;49.446;6.854;2023-08-24T02:00:14;8.38;;;3.05;;
8694;SDS011;65580;49.446;6.854;2023-08-24T02:04:17;6.75;;;3.40;;
8694;SDS011;65580;49.446;6.854;2023-08-24T02:08:20;6.32;;;2.55;;
8694;SDS011;65580;49.446;6.854;2023-08-24T02:12:23;5.22;;;2.60;;
8694;SDS011;65580;49.446;6.854;2023-08-24T02:16:27;8.68;;;3.30;;
8694;SDS011;65580;49.446;6.854;2023-08-24T02:20:30;3.22;;;2.28;;
8694;SDS011;65580;49.446;6.854;2023-08-24T02:24:32;5.68;;;2.40;;
8694;SDS011;65580;49.446;6.854;2023-08-24T02:32:40;4.95;;;2.40;;
8694;SDS011;65580;49.446;6.854;2023-08-24T02:36:43;8.05;;;2.65;;
8694;SDS011;65580;49.446;6.854;2023-08-24T02:40:46;5.70;;;2.33;;
8694;SDS011;65580;49.446;6.854;2023-08-24T02:44:49;4.82;;;3.10;;
8694;SDS011;65580;49.446;6.854;2023-08-24T02:48:53;5.65;;;2.63;;
8694;SDS011;65580;49.446;6.854;2023-08-24T02:52:56;5.43;;;2.35;;
8694;SDS011;65580;49.446;6.854;2023-08-24T02:57:00;8.65;;;2.53;;
8694;SDS011;65580;49.446;6.854;2023-08-24T03:01:04;5.10;;;2.70;;
8694;SDS011;65580;49.446;6.854;2023-08-24T03:05:09;4.32;;;2.60;;
8694;SDS011;65580;49.446;6.854;2023-08-24T03:09:12;4.88;;;3.10;;
8694;SDS011;65580;49.446;6.854;2023-08-24T03:13:14;6.70;;;2.60;;
8694;SDS011;65580;49.446;6.854;2023-08-24T03:17:17;5.00;;;2.30;;
8694;SDS011;65580;49.446;6.854;2023-08-24T03:25:38;4.50;;;2.65;;
8694;SDS011;65580;49.446;6.854;2023-08-24T03:29:42;4.07;;;2.40;;
8694;SDS011;65580;49.446;6.854;2023-08-24T03:33:45;4.95;;;2.38;;
8694;SDS011;65580;49.446;6.854;2023-08-24T03:37:49;6.18;;;2.70;;
8694;SDS011;65580;49.446;6.854;2023-08-24T03:41:53;4.13;;;2.80;;
8694;SDS011;65580;49.446;6.854;2023-08-24T03:45:56;6.30;;;2.47;;
8694;SDS011;65580;49.446;6.854;2023-08-24T03:49:59;5.35;;;2.40;;
8694;SDS011;65580;49.446;6.854;2023-08-24T03:54:03;5.63;;;2.85;;
8694;SDS011;65580;49.446;6.854;2023-08-24T03:58:07;4.53;;;2.58;;
8694;SDS011;65580;49.446;6.854;2023-08-24T04:02:09;4.60;;;2.53;;
8694;SDS011;65580;49.446;6.854;2023-08-24T04:06:12;4.65;;;2.05;;
8694;SDS011;65580;49.446;6.854;2023-08-24T04:10:17;4.32;;;2.15;;
8694;SDS011;65580;49.446;6.854;2023-08-24T04:14:20;3.72;;;1.95;;
8694;SDS011;65580;49.446;6.854;2023-08-24T04:18:22;5.50;;;2.17;;
8694;SDS011;65580;49.446;6.854;2023-08-24T04:22:25;4.10;;;2.20;;
8694;SDS011;65580;49.446;6.854;2023-08-24T04:26:29;5.53;;;2.03;;
8694;SDS011;65580;49.446;6.854;2023-08-24T04:30:32;4.88;;;2.00;;
8694;SDS011;65580;49.446;6.854;2023-08-24T04:38:38;6.28;;;2.38;;
8694;SDS011;65580;49.446;6.854;2023-08-24T04:42:42;10.15;;;3.10;;
8694;SDS011;65580;49.446;6.854;2023-08-24T04:46:46;4.25;;;2.38;;
8694;SDS011;65580;49.446;6.854;2023-08-24T04:50:49;5.78;;;2.72;;
8694;SDS011;65580;49.446;6.854;2023-08-24T04:54:53;6.47;;;2.78;;
8694;SDS011;65580;49.446;6.854;2023-08-24T04:58:58;8.32;;;2.60;;
8694;SDS011;65580;49.446;6.854;2023-08-24T05:03:02;9.43;;;2.45;;
8694;SDS011;65580;49.446;6.854;2023-08-24T05:07:12;7.85;;;2.55;;
8694;SDS011;65580;49.446;6.854;2023-08-24T05:11:16;6.47;;;2.45;;
8694;SDS011;65580;49.446;6.854;2023-08-24T05:15:21;3.97;;;2.30;;
8694;SDS011;65580;49.446;6.854;2023-08-24T05:19:24;7.63;;;2.42;;
8694;SDS011;65580;49.446;6.854;2023-08-24T05:23:30;4.45;;;2.40;;
8694;SDS011;65580;49.446;6.854;2023-08-24T05:31:37;6.45;;;2.75;;
8694;SDS011;65580;49.446;6.854;2023-08-24T05:35:39;5.80;;;2.42;;
8694;SDS011;65580;49.446;6.854;2023-08-24T05:39:42;5.88;;;2.25;;
8694;SDS011;65580;49.446;6.854;2023-08-24T05:47:55;4.30;;;2.17;;
8694;SDS011;65580;49.446;6.854;2023-08-24T05:51:58;5.18;;;2.20;;
8694;SDS011;65580;49.446;6.854;2023-08-24T05:56:01;2.83;;;1.95;;
8694;SDS011;65580;49.446;6.854;2023-08-24T06:00:05;4.05;;;2.00;;
8694;SDS011;65580;49.446;6.854;2023-08-24T06:04:12;4.20;;;1.95;;
8694;SDS011;65580;49.446;6.854;2023-08-24T06:08:16;4.60;;;2.20;;
8694;SDS011;65580;49.446;6.854;2023-08-24T06:12:31;4.35;;;2.22;;
8694;SDS011;65580;49.446;6.854;2023-08-24T06:16:34;3.25;;;1.60;;
8694;SDS011;65580;49.446;6.854;2023-08-24T06:20:40;7.75;;;3.20;;
8694;SDS011;65580;49.446;6.854;2023-08-24T06:24:43;2.90;;;1.92;;
8694;SDS011;65580;49.446;6.854;2023-08-24T06:32:49;5.53;;;1.98;;
8694;SDS011;65580;49.446;6.854;2023-08-24T06:40:57;3.90;;;2.38;;
8694;SDS011;65580;49.446;6.854;2023-08-24T06:45:00;3.72;;;2.20;;
8694;SDS011;65580;49.446;6.854;2023-08-24T06:49:03;4.97;;;2.25;;
8694;SDS011;65580;49.446;6.854;2023-08-24T06:57:25;7.05;;;1.90;;
8694;SDS011;65580;49.446;6.854;2023-08-24T07:01:28;3.22;;;2.10;;
8694;SDS011;65580;49.446;6.854;2023-08-24T07:05:33;4.47;;;1.95;;
8694;SDS011;65580;49.446;6.854;2023-08-24T07:09:40;5.72;;;1.75;;
8694;SDS011;65580;49.446;6.854;2023-08-24T07:22:34;3.70;;;1.95;;
8694;SDS011;65580;49.446;6.854;2023-08-24T07:26:39;3.75;;;1.90;;
8694;SDS011;65580;49.446;6.854;2023-08-24T07:30:42;2.65;;;1.98;;
8694;SDS011;65580;49.446;6.854;2023-08-24T07:34:45;6.22;;;1.98;;
8694;SDS011;65580;49.446;6.854;2023-08-24T07:38:48;3.85;;;1.60;;
8694;SDS011;65580;49.446;6.854;2023-08-24T07:46:56;1.67;;;1.50;;
8694;SDS011;65580;49.446;6.854;2023-08-24T07:50:59;4.60;;;1.80;;
8694;SDS011;65580;49.446;6.854;2023-08-24T07:55:02;3.42;;;1.98;;
8694;SDS011;65580;49.446;6.854;2023-08-24T08:03:41;1.98;;;1.60;;
8694;SDS011;65580;49.446;6.854;2023-08-24T08:07:44;2.33;;;1.65;;
8694;SDS011;65580;49.446;6.854;2023-08-24T08:11:51;5.30;;;1.65;;
8694;SDS011;65580;49.446;6.854;2023-08-24T08:16:01;6.75;;;2.45;;
8694;SDS011;65580;49.446;6.854;2023-08-24T08:20:05;2.88;;;1.70;;
8694;SDS011;65580;49.446;6.854;2023-08-24T08:24:09;2.17;;;1.60;;
8694;SDS011;65580;49.446;6.854;2023-08-24T08:28:25;3.13;;;1.50;;
8694;SDS011;65580;49.446;6.854;2023-08-24T08:32:39;4.18;;;1.67;;
8694;SDS011;65580;49.446;6.854;2023-08-24T08:36:42;4.57;;;1.90;;
8694;SDS011;65580;49.446;6.854;2023-08-24T08:40:45;3.55;;;1.90;;
8694;SDS011;65580;49.446;6.854;2023-08-24T08:44:48;3.33;;;1.85;;
8694;SDS011;65580;49.446;6.854;2023-08-24T08:48:56;2.85;;;1.60;;
8694;SDS011;65580;49.446;6.854;2023-08-24T08:53:00;3.42;;;1.90;;
8694;SDS011;65580;49.446;6.854;2023-08-24T08:57:04;2.78;;;1.50;;
8694;SDS011;65580;49.446;6.854;2023-08-24T09:01:07;5.57;;;1.80;;
8694;SDS011;65580;49.446;6.854;2023-08-24T09:05:12;5.57;;;1.95;;
8694;SDS011;65580;49.446;6.854;2023-08-24T09:09:15;4.60;;;2.00;;
8694;SDS011;65580;49.446;6.854;2023-08-24T09:13:18;4.07;;;1.60;;
8694;SDS011;65580;49.446;6.854;2023-08-24T09:17:28;2.90;;;1.50;;
8694;SDS011;65580;49.446;6.854;2023-08-24T09:21:32;2.10;;;1.58;;
8694;SDS011;65580;49.446;6.854;2023-08-24T09:25:44;1.90;;;1.40;;
8694;SDS011;65580;49.446;6.854;2023-08-24T09:29:48;4.00;;;1.85;;
8694;SDS011;65580;49.446;6.854;2023-08-24T09:33:52;3.28;;;1.63;;
8694;SDS011;65580;49.446;6.854;2023-08-24T09:38:16;2.30;;;1.55;;
8694;SDS011;65580;49.446;6.854;2023-08-24T09:42:24;5.38;;;1.65;;
8694;SDS011;65580;49.446;6.854;2023-08-24T09:46:30;2.55;;;1.60;;
8694;SDS011;65580;49.446;6.854;2023-08-24T09:50:33;3.90;;;1.52;;
8694;SDS011;65580;49.446;6.854;2023-08-24T09:54:37;3.72;;;1.83;;
8694;SDS011;65580;49.446;6.854;2023-08-24T09:58:40;2.92;;;1.55;;
8694;SDS011;65580;49.446;6.854;2023-08-24T10:02:46;3.22;;;1.83;;
8694;SDS011;65580;49.446;6.854;2023-08-24T10:06:55;2.95;;;1.88;;
8694;SDS011;65580;49.446;6.854;2023-08-24T10:10:59;3.00;;;1.42;;
8694;SDS011;65580;49.446;6.854;2023-08-24T10:15:03;2.55;;;1.80;;
8694;SDS011;65580;49.446;6.854;2023-08-24T10:19:08;4.43;;;1.55;;
8694;SDS011;65580;49.446;6.854;2023-08-24T10:23:14;3.05;;;1.67;;
8694;SDS011;65580;49.446;6.854;2023-08-24T10:27:19;3.10;;;1.38;;
8694;SDS011;65580;49.446;6.854;2023-08-24T10:31:23;3.90;;;1.60;;
8694;SDS011;65580;49.446;6.854;2023-08-24T10:35:26;3.30;;;1.60;;
8694;SDS011;65580;49.446;6.854;2023-08-24T10:39:29;12.27;;;2.05;;
8694;SDS011;65580;49.446;6.854;2023-08-24T10:43:35;3.35;;;1.75;;
8694;SDS011;65580;49.446;6.854;2023-08-24T10:47:43;3.42;;;1.67;;
8694;SDS011;65580;49.446;6.854;2023-08-24T10:55:50;3.85;;;1.77;;
8694;SDS011;65580;49.446;6.854;2023-08-24T11:00:14;4.32;;;2.03;;
8694;SDS011;65580;49.446;6.854;2023-08-24T11:04:17;5.35;;;2.05;;
8694;SDS011;65580;49.446;6.854;2023-08-24T11:08:20;2.65;;;1.90;;
8694;SDS011;65580;49.446;6.854;2023-08-24T11:12:23;2.35;;;1.60;;
8694;SDS011;65580;49.446;6.854;2023-08-24T11:16:39;2.33;;;1.70;;
8694;SDS011;65580;49.446;6.854;2023-08-24T11:20:43;4.18;;;2.25;;
8694;SDS011;65580;49.446;6.854;2023-08-24T11:24:46;3.05;;;1.80;;
8694;SDS011;65580;49.446;6.854;2023-08-24T11:28:49;3.80;;;2.00;;
8694;SDS011;65580;49.446;6.854;2023-08-24T11:32:57;3.90;;;1.90;;
8694;SDS011;65580;49.446;6.854;2023-08-24T11:37:01;3.30;;;2.00;;
8694;SDS011;65580;49.446;6.854;2023-08-24T11:41:10;5.38;;;2.13;;
8694;SDS011;65580;49.446;6.854;2023-08-24T11:45:13;5.38;;;2.08;;
8694;SDS011;65580;49.446;6.854;2023-08-24T11:49:18;2.85;;;2.00;;
8694;SDS011;65580;49.446;6.854;2023-08-24T11:53:21;3.30;;;2.15;;
8694;SDS011;65580;49.446;6.854;2023-08-24T11:57:25;3.03;;;2.00;;
8694;SDS011;65580;49.446;6.854;2023-08-24T12:01:29;4.07;;;1.73;;
8694;SDS011;65580;49.446;6.854;2023-08-24T12:05:34;4.57;;;1.80;;
8694;SDS011;65580;49.446;6.854;2023-08-24T12:09:38;2.85;;;1.77;;
8694;SDS011;65580;49.446;6.854;2023-08-24T12:13:45;4.85;;;1.90;;
8694;SDS011;65580;49.446;6.854;2023-08-24T12:17:49;5.70;;;2.33;;
8694;SDS011;65580;49.446;6.854;2023-08-24T12:21:53;3.17;;;2.00;;
8694;SDS011;65580;49.446;6.854;2023-08-24T12:25:56;5.05;;;2.25;;
8694;SDS011;65580;49.446;6.854;2023-08-24T12:30:00;6.28;;;2.55;;
8694;SDS011;65580;49.446;6.854;2023-08-24T12:34:07;6.97;;;2.58;;
8694;SDS011;65580;49.446;6.854;2023-08-24T12:38:25;7.25;;;2.55;;
8694;SDS011;65580;49.446;6.854;2023-08-24T12:42:29;5.18;;;2.97;;
8694;SDS011;65580;49.446;6.854;2023-08-24T12:46:35;5.20;;;2.38;;
8694;SDS011;65580;49.446;6.854;2023-08-24T12:50:40;4.55;;;2.42;;
8694;SDS011;65580;49.446;6.854;2023-08-24T12:54:44;5.43;;;2.22;;
8694;SDS011;65580;49.446;6.854;2023-08-24T12:58:47;5.63;;;2.60;;
8694;SDS011;65580;49.446;6.854;2023-08-24T13:02:50;9.90;;;3.13;;
8694;SDS011;65580;49.446;6.854;2023-08-24T13:06:53;5.45;;;2.72;;
8694;SDS011;65580;49.446;6.854;2023-08-24T13:10:57;4.57;;;2.33;;
8694;SDS011;65580;49.446;6.854;2023-08-24T13:15:00;4.68;;;2.28;;
8694;SDS011;65580;49.446;6.854;2023-08-24T13:19:03;3.92;;;2.25;;
8694;SDS011;65580;49.446;6.854;2023-08-24T13:23:06;5.97;;;2.63;;
8694;SDS011;65580;49.446;6.854;2023-08-24T13:27:10;4.65;;;2.38;;
8694;SDS011;65580;49.446;6.854;2023-08-24T13:31:13;4.65;;;2.70;;
8694;SDS011;65580;49.446;6.854;2023-08-24T13:35:16;4.70;;;2.42;;
8694;SDS011;65580;49.446;6.854;2023-08-24T13:43:47;4.25;;;2.83;;
8694;SDS011;65580;49.446;6.854;2023-08-24T13:47:49;3.72;;;2.78;;
8694;SDS011;65580;49.446;6.854;2023-08-24T13:51:52;4.95;;;2.65;;
8694;SDS011;65580;49.446;6.854;2023-08-24T13:55:55;4.60;;;2.33;;
8694;SDS011;65580;49.446;6.854;2023-08-24T14:00:01;3.70;;;2.38;;
8694;SDS011;65580;49.446;6.854;2023-08-24T14:04:05;4.03;;;2.60;;
8694;SDS011;65580;49.446;6.854;2023-08-24T14:08:09;4.03;;;2.38;;
8694;SDS011;65580;49.446;6.854;2023-08-24T14:16:16;4.28;;;2.40;;
8694;SDS011;65580;49.446;6.854;2023-08-24T14:20:19;3.60;;;2.35;;
8694;SDS011;65580;49.446;6.854;2023-08-24T14:24:23;4.20;;;2.50;;
8694;SDS011;65580;49.446;6.854;2023-08-24T14:32:51;4.93;;;2.78;;
8694;SDS011;65580;49.446;6.854;2023-08-24T14:36:54;8.57;;;2.33;;
8694;SDS011;65580;49.446;6.854;2023-08-24T14:40:57;4.88;;;2.40;;
8694;SDS011;65580;49.446;6.854;2023-08-24T14:45:02;5.18;;;2.75;;
8694;SDS011;65580;49.446;6.854;2023-08-24T14:49:07;5.03;;;2.88;;
8694;SDS011;65580;49.446;6.854;2023-08-24T14:53:10;6.45;;;2.50;;
8694;SDS011;65580;49.446;6.854;2023-08-24T14:57:13;3.40;;;1.88;;
8694;SDS011;65580;49.446;6.854;2023-08-24T15:05:20;3.38;;;2.38;;
8694;SDS011;65580;49.446;6.854;2023-08-24T15:09:22;5.30;;;1.88;;
8694;SDS011;65580;49.446;6.854;2023-08-24T15:13:26;3.30;;;1.73;;
8694;SDS011;65580;49.446;6.854;2023-08-24T15:17:30;2.97;;;1.70;;
8694;SDS011;65580;49.446;6.854;2023-08-24T15:21:35;2.25;;;1.70;;
8694;SDS011;65580;49.446;6.854;2023-08-24T15:25:38;2.63;;;1.80;;
8694;SDS011;65580;49.446;6.854;2023-08-24T15:33:43;2.28;;;1.60;;
8694;SDS011;65580;49.446;6.854;2023-08-24T15:41:50;2.53;;;1.58;;
8694;SDS011;65580;49.446;6.854;2023-08-24T15:49:56;3.28;;;1.63;;
8694;SDS011;65580;49.446;6.854;2023-08-24T15:54:00;2.08;;;1.40;;
8694;SDS011;65580;49.446;6.854;2023-08-24T15:58:04;5.10;;;1.58;;
8694;SDS011;65580;49.446;6.854;2023-08-24T16:02:07;2.28;;;1.35;;
8694;SDS011;65580;49.446;6.854;2023-08-24T16:06:10;4.53;;;1.30;;
8694;SDS011;65580;49.446;6.854;2023-08-24T16:10:14;2.47;;;1.23;;
8694;SDS011;65580;49.446;6.854;2023-08-24T16:14:17;8.00;;;2.50;;
8694;SDS011;65580;49.446;6.854;2023-08-24T16:18:22;6.63;;;2.28;;
8694;SDS011;65580;49.446;6.854;2023-08-24T16:22:25;6.40;;;2.55;;
8694;SDS011;65580;49.446;6.854;2023-08-24T16:26:29;3.60;;;1.70;;
8694;SDS011;65580;49.446;6.854;2023-08-24T16:30:32;6.95;;;2.10;;
8694;SDS011;65580;49.446;6.854;2023-08-24T16:34:35;8.38;;;2.30;;
8694;SDS011;65580;49.446;6.854;2023-08-24T16:38:38;8.35;;;2.42;;
8694;SDS011;65580;49.446;6.854;2023-08-24T16:42:42;4.55;;;2.63;;
8694;SDS011;65580;49.446;6.854;2023-08-24T16:46:45;2.67;;;1.60;;
8694;SDS011;65580;49.446;6.854;2023-08-24T16:50:49;4.57;;;2.60;;
8694;SDS011;65580;49.446;6.854;2023-08-24T16:54:52;7.78;;;2.10;;
8694;SDS011;65580;49.446;6.854;2023-08-24T16:58:56;5.93;;;2.10;;
8694;SDS011;65580;49.446;6.854;2023-08-24T17:02:59;3.88;;;1.80;;
8694;SDS011;65580;49.446;6.854;2023-08-24T17:07:02;6.43;;;2.80;;
8694;SDS011;65580;49.446;6.854;2023-08-24T17:11:05;6.80;;;1.85;;
8694;SDS011;65580;49.446;6.854;2023-08-24T17:15:10;6.68;;;1.95;;
8694;SDS011;65580;49.446;6.854;2023-08-24T17:19:13;8.38;;;1.70;;
8694;SDS011;65580;49.446;6.854;2023-08-24T17:23:16;3.85;;;1.98;;
8694;SDS011;65580;49.446;6.854;2023-08-24T17:27:18;5.70;;;2.28;;
8694;SDS011;65580;49.446;6.854;2023-08-24T17:31:22;7.70;;;2.10;;
8694;SDS011;65580;49.446;6.854;2023-08-24T17:35:25;6.65;;;2.13;;
8694;SDS011;65580;49.446;6.854;2023-08-24T17:39:28;4.18;;;2.13;;
8694;SDS011;65580;49.446;6.854;2023-08-24T17:47:39;6.32;;;1.95;;
8694;SDS011;65580;49.446;6.854;2023-08-24T17:51:42;6.07;;;1.70;;
8694;SDS011;65580;49.446;6.854;2023-08-24T17:55:45;8.30;;;1.95;;
8694;SDS011;65580;49.446;6.854;2023-08-24T17:59:48;9.18;;;2.17;;
8694;SDS011;65580;49.446;6.854;2023-08-24T18:03:52;4.22;;;1.92;;
8694;SDS011;65580;49.446;6.854;2023-08-24T18:07:55;3.47;;;2.17;;
8694;SDS011;65580;49.446;6.854;2023-08-24T18:11:58;6.20;;;2.10;;
8694;SDS011;65580;49.446;6.854;2023-08-24T18:16:00;6.80;;;2.25;;
8694;SDS011;65580;49.446;6.854;2023-08-24T18:20:06;8.23;;;2.90;;
8694;SDS011;65580;49.446;6.854;2023-08-24T18:24:10;5.38;;;1.90;;
8694;SDS011;65580;49.446;6.854;2023-08-24T18:28:13;5.45;;;2.58;;
8694;SDS011;65580;49.446;6.854;2023-08-24T18:32:15;3.28;;;1.83;;
8694;SDS011;65580;49.446;6.854;2023-08-24T18:36:20;6.53;;;2.00;;
8694;SDS011;65580;49.446;6.854;2023-08-24T18:40:23;4.47;;;2.55;;
8694;SDS011;65580;49.446;6.854;2023-08-24T18:44:25;6.00;;;2.75;;
8694;SDS011;65580;49.446;6.854;2023-08-24T18:48:29;6.63;;;2.30;;
8694;SDS011;65580;49.446;6.854;2023-08-24T18:52:33;48.15;;;3.05;;
8694;SDS011;65580;49.446;6.854;2023-08-24T18:56:36;5.15;;;1.80;;
8694;SDS011;65580;49.446;6.854;2023-08-24T19:00:39;4.63;;;2.80;;
8694;SDS011;65580;49.446;6.854;2023-08-24T19:04:41;4.10;;;2.13;;
8694;SDS011;65580;49.446;6.854;2023-08-24T19:08:45;3.38;;;2.10;;
8694;SDS011;65580;49.446;6.854;2023-08-24T19:12:48;3.75;;;2.38;;
8694;SDS011;65580;49.446;6.854;2023-08-24T19:16:51;4.53;;;2.30;;
8694;SDS011;65580;49.446;6.854;2023-08-24T19:20:54;3.65;;;2.10;;
8694;SDS011;65580;49.446;6.854;2023-08-24T19:24:58;7.25;;;2.00;;
8694;SDS011;65580;49.446;6.854;2023-08-24T19:29:04;3.88;;;2.33;;
8694;SDS011;65580;49.446;6.854;2023-08-24T19:33:08;3.38;;;2.28;;
8694;SDS011;65580;49.446;6.854;2023-08-24T19:37:11;10.20;;;3.22;;
8694;SDS011;65580;49.446;6.854;2023-08-24T19:41:15;5.80;;;2.63;;
8694;SDS011;65580;49.446;6.854;2023-08-24T19:45:18;8.10;;;2.72;;
8694;SDS011;65580;49.446;6.854;2023-08-24T19:49:21;6.53;;;2.72;;
8694;SDS011;65580;49.446;6.854;2023-08-24T19:53:23;6.85;;;3.28;;
8694;SDS011;65580;49.446;6.854;2023-08-24T19:57:29;45.67;;;3.78;;
8694;SDS011;65580;49.446;6.854;2023-08-24T20:01:31;6.47;;;3.10;;
8694;SDS011;65580;49.446;6.854;2023-08-24T20:05:35;3.95;;;2.22;;
8694;SDS011;65580;49.446;6.854;2023-08-24T20:09:38;4.65;;;1.80;;
8694;SDS011;65580;49.446;6.854;2023-08-24T20:13:42;20.27;;;4.72;;
8694;SDS011;65580;49.446;6.854;2023-08-24T20:17:46;6.07;;;3.05;;
8694;SDS011;65580;49.446;6.854;2023-08-24T20:21:49;40.05;;;3.80;;
8694;SDS011;65580;49.446;6.854;2023-08-24T20:25:53;3.63;;;2.10;;
8694;SDS011;65580;49.446;6.854;2023-08-24T20:29:57;4.28;;;1.80;;
8694;SDS011;65580;49.446;6.854;2023-08-24T20:34:00;5.80;;;3.13;;
8694;SDS011;65580;49.446;6.854;2023-08-24T20:38:03;4.35;;;2.10;;
8694;SDS011;65580;49.446;6.854;2023-08-24T20:42:12;6.75;;;2.55;;
8694;SDS011;65580;49.446;6.854;2023-08-24T20:46:17;5.05;;;2.42;;
8694;SDS011;65580;49.446;6.854;2023-08-24T20:50:20;6.88;;;2.53;;
8694;SDS011;65580;49.446;6.854;2023-08-24T20:54:24;5.72;;;2.65;;
8694;SDS011;65580;49.446;6.854;2023-08-24T21:02:31;10.75;;;4.82;;
8694;SDS011;65580;49.446;6.854;2023-08-24T21:06:34;16.48;;;6.07;;
8694;SDS011;65580;49.446;6.854;2023-08-24T21:10:37;21.70;;;7.30;;
8694;SDS011;65580;49.446;6.854;2023-08-24T21:14:43;68.57;;;12.77;;
8694;SDS011;65580;49.446;6.854;2023-08-24T21:18:47;18.30;;;7.40;;
8694;SDS011;65580;49.446;6.854;2023-08-24T21:22:50;16.13;;;7.32;;
8694;SDS011;65580;49.446;6.854;2023-08-24T21:26:53;15.90;;;6.70;;
8694;SDS011;65580;49.446;6.854;2023-08-24T21:30:58;21.85;;;8.40;;
8694;SDS011;65580;49.446;6.854;2023-08-24T21:35:03;14.40;;;7.13;;
8694;SDS011;65580;49.446;6.854;2023-08-24T21:39:06;121.95;;;10.70;;
8694;SDS011;65580;49.446;6.854;2023-08-24T21:43:09;14.15;;;6.55;;
8694;SDS011;65580;49.446;6.854;2023-08-24T21:47:12;10.35;;;5.43;;
8694;SDS011;65580;49.446;6.854;2023-08-24T21:51:16;30.60;;;7.57;;
8694;SDS011;65580;49.446;6.854;2023-08-24T21:55:19;11.90;;;5.47;;
8694;SDS011;65580;49.446;6.854;2023-08-24T21:59:22;12.50;;;5.10;;
8694;SDS011;65580;49.446;6.854;2023-08-24T22:03:24;11.88;;;5.57;;
8694;SDS011;65580;49.446;6.854;2023-08-24T22:07:29;14.88;;;6.53;;
8694;SDS011;65580;49.446;6.854;2023-08-24T22:11:33;12.25;;;5.72;;
8694;SDS011;65580;49.446;6.854;2023-08-24T22:15:36;13.27;;;5.82;;
8694;SDS011;65580;49.446;6.854;2023-08-24T22:19:38;19.77;;;7.95;;
8694;SDS011;65580;49.446;6.854;2023-08-24T22:23:42;19.95;;;6.25;;
8694;SDS011;65580;49.446;6.854;2023-08-24T22:27:45;14.95;;;6.95;;
8694;SDS011;65580;49.446;6.854;2023-08-24T22:31:49;182.15;;;11.13;;
8694;SDS011;65580;49.446;6.854;2023-08-24T22:35:51;10.60;;;5.30;;
8694;SDS011;65580;49.446;6.854;2023-08-24T22:39:56;12.45;;;6.03;;
8694;SDS011;65580;49.446;6.854;2023-08-24T22:44:03;37.53;;;6.47;;
8694;SDS011;65580;49.446;6.854;2023-08-24T22:52:09;8.93;;;4.85;;
8694;SDS011;65580;49.446;6.854;2023-08-24T22:56:13;7.57;;;4.28;;
8694;SDS011;65580;49.446;6.854;2023-08-24T23:00:17;13.35;;;5.20;;
8694;SDS011;65580;49.446;6.854;2023-08-24T23:04:20;9.20;;;4.43;;
8694;SDS011;65580;49.446;6.854;2023-08-24T23:08:23;22.20;;;6.28;;
8694;SDS011;65580;49.446;6.854;2023-08-24T23:12:27;9.13;;;4.97;;
8694;SDS011;65580;49.446;6.854;2023-08-24T23:16:29;30.30;;;6.63;;
8694;SDS011;65580;49.446;6.854;2023-08-24T23:20:32;11.43;;;4.47;;
8694;SDS011;65580;49.446;6.854;2023-08-24T23:24:36;15.73;;;5.70;;
8694;SDS011;65580;49.446;6.854;2023-08-24T23:28:52;12.48;;;5.50;;
8694;SDS011;65580;49.446;6.854;2023-08-24T23:32:55;13.38;;;4.55;;
8694;SDS011;65580;49.446;6.854;2023-08-24T23:36:59;20.80;;;6.03;;
8694;SDS011;65580;49.446;6.854;2023-08-24T23:41:02;70.97;;;9.15;;
8694;SDS011;65580;49.446;6.854;2023-08-24T23:45:07;62.92;;;8.85;;
8694;SDS011;65580;49.446;6.854;2023-08-24T23:49:11;22.55;;;6.70;;
8694;SDS011;65580;49.446;6.854;2023-08-24T23:53:14;19.00;;;7.05;;
8694;SDS011;65580;49.446;6.854;2023-08-24T23:57:17;43.65;;;7.60;;
